sensor_id;sensor_type;location;lat;lon;timestamp;temperature;humidity
33067;DHT22;19428;49.024;8.366;2023-07-22T00:02:08;17.50;99.90
33067;DHT22;19428;49.024;8.366;2023-07-22T00:04:33;17.50;99.90
33067;DHT22;19428;49.024;8.366;2023-07-22T00:06:59;17.40;99.90
33067;DHT22;19428;49.024;8.366;2023-07-22T00:09:25;17.40;99.90
33067;DHT22;19428;49.024;8.366;2023-07-22T00:11:50;17.50;99.90
33067;DHT22;19428;49.024;8.366;2023-07-22T00:14:16;17.70;99.90
33067;DHT22;19428;49.024;8.366;2023-07-22T00:16:41;17.80;99.90
33067;DHT22;19428;49.024;8.366;2023-07-22T00:19:08;17.90;99.90
33067;DHT22;19428;49.024;8.366;2023-07-22T00:21:33;17.90;99.90
33067;DHT22;19428;49.024;8.366;2023-07-22T00:24:00;17.90;99.90
33067;DHT22;19428;49.024;8.366;2023-07-22T00:26:25;17.90;99.90
33067;DHT22;19428;49.024;8.366;2023-07-22T00:28:51;17.90;99.90
33067;DHT22;19428;49.024;8.366;2023-07-22T00:31:17;17.90;99.90
33067;DHT22;19428;49.024;8.366;2023-07-22T00:33:42;17.90;99.90
33067;DHT22;19428;49.024;8.366;2023-07-22T00:36:08;17.80;99.90
33067;DHT22;19428;49.024;8.366;2023-07-22T00:38:33;17.80;99.90
33067;DHT22;19428;49.024;8.366;2023-07-22T00:40:59;17.80;99.90
33067;DHT22;19428;49.024;8.366;2023-07-22T00:43:24;17.80;99.90
33067;DHT22;19428;49.024;8.366;2023-07-22T00:45:51;17.80;99.90
33067;DHT22;19428;49.024;8.366;2023-07-22T00:48:17;17.80;99.90
33067;DHT22;19428;49.024;8.366;2023-07-22T00:50:44;17.80;99.90
33067;DHT22;19428;49.024;8.366;2023-07-22T00:53:10;17.80;99.90
33067;DHT22;19428;49.024;8.366;2023-07-22T00:55:36;17.80;99.90
33067;DHT22;19428;49.024;8.366;2023-07-22T00:58:04;17.70;99.90
33067;DHT22;19428;49.024;8.366;2023-07-22T01:00:30;17.70;99.90
33067;DHT22;19428;49.024;8.366;2023-07-22T01:02:57;17.60;99.90
33067;DHT22;19428;49.024;8.366;2023-07-22T01:05:23;17.60;99.90
33067;DHT22;19428;49.024;8.366;2023-07-22T01:07:51;17.50;99.90
33067;DHT22;19428;49.024;8.366;2023-07-22T01:10:17;17.40;99.90
33067;DHT22;19428;49.024;8.366;2023-07-22T01:12:43;17.30;99.90
33067;DHT22;19428;49.024;8.366;2023-07-22T01:15:10;17.30;99.90
33067;DHT22;19428;49.024;8.366;2023-07-22T01:17:39;17.30;99.90
33067;DHT22;19428;49.024;8.366;2023-07-22T01:20:06;17.20;99.90
33067;DHT22;19428;49.024;8.366;2023-07-22T01:22:33;17.10;99.90
33067;DHT22;19428;49.024;8.366;2023-07-22T01:24:59;17.10;99.90
33067;DHT22;19428;49.024;8.366;2023-07-22T01:27:25;17.00;99.90
33067;DHT22;19428;49.024;8.366;2023-07-22T01:29:51;16.90;99.90
33067;DHT22;19428;49.024;8.366;2023-07-22T01:32:17;16.90;99.90
33067;DHT22;19428;49.024;8.366;2023-07-22T01:34:43;16.90;99.90
33067;DHT22;19428;49.024;8.366;2023-07-22T01:37:09;16.80;99.90
33067;DHT22;19428;49.024;8.366;2023-07-22T01:39:37;16.80;99.90
33067;DHT22;19428;49.024;8.366;2023-07-22T01:42:03;16.90;99.90
33067;DHT22;19428;49.024;8.366;2023-07-22T01:44:30;16.90;99.90
33067;DHT22;19428;49.024;8.366;2023-07-22T01:46:55;16.80;99.90
33067;DHT22;19428;49.024;8.366;2023-07-22T01:49:21;16.80;99.90
33067;DHT22;19428;49.024;8.366;2023-07-22T01:51:47;16.80;99.90
33067;DHT22;19428;49.024;8.366;2023-07-22T01:54:12;16.80;99.90
33067;DHT22;19428;49.024;8.366;2023-07-22T01:56:38;16.80;99.90
33067;DHT22;19428;49.024;8.366;2023-07-22T01:59:05;16.80;99.90
33067;DHT22;19428;49.024;8.366;2023-07-22T02:01:31;16.70;99.90
33067;DHT22;19428;49.024;8.366;2023-07-22T02:03:57;16.60;99.90
33067;DHT22;19428;49.024;8.366;2023-07-22T02:06:22;16.50;99.90
33067;DHT22;19428;49.024;8.366;2023-07-22T02:08:48;16.30;99.90
33067;DHT22;19428;49.024;8.366;2023-07-22T02:11:14;16.30;99.90
33067;DHT22;19428;49.024;8.366;2023-07-22T02:13:39;16.20;99.90
33067;DHT22;19428;49.024;8.366;2023-07-22T02:16:05;16.20;99.90
33067;DHT22;19428;49.024;8.366;2023-07-22T02:18:30;16.10;99.90
33067;DHT22;19428;49.024;8.366;2023-07-22T02:20:57;16.00;99.90
33067;DHT22;19428;49.024;8.366;2023-07-22T02:23:23;15.90;99.90
33067;DHT22;19428;49.024;8.366;2023-07-22T02:25:53;16.00;99.90
33067;DHT22;19428;49.024;8.366;2023-07-22T02:28:20;15.90;99.90
33067;DHT22;19428;49.024;8.366;2023-07-22T02:30:51;16.00;99.90
33067;DHT22;19428;49.024;8.366;2023-07-22T02:33:18;15.80;99.90
33067;DHT22;19428;49.024;8.366;2023-07-22T02:35:44;15.70;99.90
33067;DHT22;19428;49.024;8.366;2023-07-22T02:38:10;15.70;99.90
33067;DHT22;19428;49.024;8.366;2023-07-22T02:40:37;15.60;99.90
33067;DHT22;19428;49.024;8.366;2023-07-22T02:43:03;15.70;99.90
33067;DHT22;19428;49.024;8.366;2023-07-22T02:45:29;15.80;99.90
33067;DHT22;19428;49.024;8.366;2023-07-22T02:47:54;15.80;99.90
33067;DHT22;19428;49.024;8.366;2023-07-22T02:50:20;15.90;99.90
33067;DHT22;19428;49.024;8.366;2023-07-22T02:52:45;15.90;99.90
33067;DHT22;19428;49.024;8.366;2023-07-22T02:55:16;15.80;99.90
33067;DHT22;19428;49.024;8.366;2023-07-22T02:57:45;15.70;99.90
33067;DHT22;19428;49.024;8.366;2023-07-22T03:00:15;15.60;99.90
33067;DHT22;19428;49.024;8.366;2023-07-22T03:02:51;15.50;99.90
33067;DHT22;19428;49.024;8.366;2023-07-22T03:05:26;15.40;99.90
33067;DHT22;19428;49.024;8.366;2023-07-22T03:07:53;15.40;99.90
33067;DHT22;19428;49.024;8.366;2023-07-22T03:10:19;15.30;99.90
33067;DHT22;19428;49.024;8.366;2023-07-22T03:12:44;15.30;99.90
33067;DHT22;19428;49.024;8.366;2023-07-22T03:15:10;15.30;99.90
33067;DHT22;19428;49.024;8.366;2023-07-22T03:17:37;15.20;99.90
33067;DHT22;19428;49.024;8.366;2023-07-22T03:20:04;15.20;99.90
33067;DHT22;19428;49.024;8.366;2023-07-22T03:22:42;15.20;99.90
33067;DHT22;19428;49.024;8.366;2023-07-22T03:25:09;15.30;99.90
33067;DHT22;19428;49.024;8.366;2023-07-22T03:27:36;15.20;99.90
33067;DHT22;19428;49.024;8.366;2023-07-22T03:30:03;15.40;99.90
33067;DHT22;19428;49.024;8.366;2023-07-22T03:32:28;15.60;99.90
33067;DHT22;19428;49.024;8.366;2023-07-22T03:34:54;15.80;99.90
33067;DHT22;19428;49.024;8.366;2023-07-22T03:37:20;15.80;99.90
33067;DHT22;19428;49.024;8.366;2023-07-22T03:39:45;15.80;99.90
33067;DHT22;19428;49.024;8.366;2023-07-22T03:42:11;15.80;99.90
33067;DHT22;19428;49.024;8.366;2023-07-22T03:44:37;15.30;99.90
33067;DHT22;19428;49.024;8.366;2023-07-22T03:47:03;15.10;99.90
33067;DHT22;19428;49.024;8.366;2023-07-22T03:49:28;14.90;99.90
33067;DHT22;19428;49.024;8.366;2023-07-22T03:51:54;14.80;99.90
33067;DHT22;19428;49.024;8.366;2023-07-22T03:54:19;15.00;99.90
33067;DHT22;19428;49.024;8.366;2023-07-22T03:56:45;15.00;99.90
33067;DHT22;19428;49.024;8.366;2023-07-22T03:59:10;15.00;99.90
33067;DHT22;19428;49.024;8.366;2023-07-22T04:01:36;15.20;99.90
33067;DHT22;19428;49.024;8.366;2023-07-22T04:04:01;15.30;99.90
33067;DHT22;19428;49.024;8.366;2023-07-22T04:06:27;15.30;99.90
33067;DHT22;19428;49.024;8.366;2023-07-22T04:08:52;15.20;99.90
33067;DHT22;19428;49.024;8.366;2023-07-22T04:11:18;15.40;99.90
33067;DHT22;19428;49.024;8.366;2023-07-22T04:13:43;15.50;99.90
33067;DHT22;19428;49.024;8.366;2023-07-22T04:16:09;15.50;99.90
33067;DHT22;19428;49.024;8.366;2023-07-22T04:18:34;15.50;99.90
33067;DHT22;19428;49.024;8.366;2023-07-22T04:21:00;15.60;99.90
33067;DHT22;19428;49.024;8.366;2023-07-22T04:23:26;15.60;99.90
33067;DHT22;19428;49.024;8.366;2023-07-22T04:25:52;15.60;99.90
33067;DHT22;19428;49.024;8.366;2023-07-22T04:28:18;15.60;99.90
33067;DHT22;19428;49.024;8.366;2023-07-22T04:30:54;15.70;99.90
33067;DHT22;19428;49.024;8.366;2023-07-22T04:33:20;15.80;99.90
33067;DHT22;19428;49.024;8.366;2023-07-22T04:35:46;15.90;99.90
33067;DHT22;19428;49.024;8.366;2023-07-22T04:38:11;15.90;99.90
33067;DHT22;19428;49.024;8.366;2023-07-22T04:40:37;16.00;99.90
33067;DHT22;19428;49.024;8.366;2023-07-22T04:43:07;16.00;99.90
33067;DHT22;19428;49.024;8.366;2023-07-22T04:45:33;16.00;99.90
33067;DHT22;19428;49.024;8.366;2023-07-22T04:47:59;16.00;99.90
33067;DHT22;19428;49.024;8.366;2023-07-22T04:50:25;16.00;99.90
33067;DHT22;19428;49.024;8.366;2023-07-22T04:52:50;16.10;99.90
33067;DHT22;19428;49.024;8.366;2023-07-22T04:55:17;16.10;99.90
33067;DHT22;19428;49.024;8.366;2023-07-22T04:57:42;16.10;99.90
33067;DHT22;19428;49.024;8.366;2023-07-22T05:00:11;16.10;99.90
33067;DHT22;19428;49.024;8.366;2023-07-22T05:02:41;16.30;99.90
33067;DHT22;19428;49.024;8.366;2023-07-22T05:05:09;16.40;99.90
33067;DHT22;19428;49.024;8.366;2023-07-22T05:07:35;16.40;99.90
33067;DHT22;19428;49.024;8.366;2023-07-22T05:10:00;16.50;99.90
33067;DHT22;19428;49.024;8.366;2023-07-22T05:12:26;16.80;99.90
33067;DHT22;19428;49.024;8.366;2023-07-22T05:14:51;16.80;99.90
33067;DHT22;19428;49.024;8.366;2023-07-22T05:17:17;16.70;99.90
33067;DHT22;19428;49.024;8.366;2023-07-22T05:19:43;16.60;99.90
33067;DHT22;19428;49.024;8.366;2023-07-22T05:22:08;16.40;99.90
33067;DHT22;19428;49.024;8.366;2023-07-22T05:24:34;16.30;99.90
33067;DHT22;19428;49.024;8.366;2023-07-22T05:26:59;16.20;99.90
33067;DHT22;19428;49.024;8.366;2023-07-22T05:29:25;16.30;99.90
33067;DHT22;19428;49.024;8.366;2023-07-22T05:31:51;16.30;99.90
33067;DHT22;19428;49.024;8.366;2023-07-22T05:34:16;16.40;99.90
33067;DHT22;19428;49.024;8.366;2023-07-22T05:36:42;16.30;99.90
33067;DHT22;19428;49.024;8.366;2023-07-22T05:39:07;16.40;99.90
33067;DHT22;19428;49.024;8.366;2023-07-22T05:41:33;16.40;99.90
33067;DHT22;19428;49.024;8.366;2023-07-22T05:43:59;16.40;99.90
33067;DHT22;19428;49.024;8.366;2023-07-22T05:46:25;16.50;99.90
33067;DHT22;19428;49.024;8.366;2023-07-22T05:48:50;16.60;99.90
33067;DHT22;19428;49.024;8.366;2023-07-22T05:51:16;16.70;99.90
33067;DHT22;19428;49.024;8.366;2023-07-22T05:53:42;16.80;99.90
33067;DHT22;19428;49.024;8.366;2023-07-22T05:56:08;16.80;99.90
33067;DHT22;19428;49.024;8.366;2023-07-22T05:58:34;16.90;99.90
33067;DHT22;19428;49.024;8.366;2023-07-22T06:00:59;17.20;99.90
33067;DHT22;19428;49.024;8.366;2023-07-22T06:03:25;17.00;99.90
33067;DHT22;19428;49.024;8.366;2023-07-22T06:05:50;17.10;99.90
33067;DHT22;19428;49.024;8.366;2023-07-22T06:08:16;17.10;99.90
33067;DHT22;19428;49.024;8.366;2023-07-22T06:10:42;17.20;99.90
33067;DHT22;19428;49.024;8.366;2023-07-22T06:13:08;17.20;99.90
33067;DHT22;19428;49.024;8.366;2023-07-22T06:15:33;17.20;99.90
33067;DHT22;19428;49.024;8.366;2023-07-22T06:18:00;17.20;99.90
33067;DHT22;19428;49.024;8.366;2023-07-22T06:20:26;17.30;99.90
33067;DHT22;19428;49.024;8.366;2023-07-22T06:22:52;17.30;99.90
33067;DHT22;19428;49.024;8.366;2023-07-22T06:25:17;17.50;99.90
33067;DHT22;19428;49.024;8.366;2023-07-22T06:27:43;18.00;99.90
33067;DHT22;19428;49.024;8.366;2023-07-22T06:30:09;17.70;99.90
33067;DHT22;19428;49.024;8.366;2023-07-22T06:32:37;17.90;99.90
33067;DHT22;19428;49.024;8.366;2023-07-22T06:35:03;17.70;99.90
33067;DHT22;19428;49.024;8.366;2023-07-22T06:37:29;18.10;99.90
33067;DHT22;19428;49.024;8.366;2023-07-22T06:39:55;18.10;99.90
33067;DHT22;19428;49.024;8.366;2023-07-22T06:42:20;18.00;99.90
33067;DHT22;19428;49.024;8.366;2023-07-22T06:44:46;18.20;99.90
33067;DHT22;19428;49.024;8.366;2023-07-22T06:47:11;18.40;99.90
33067;DHT22;19428;49.024;8.366;2023-07-22T06:49:37;18.50;99.90
33067;DHT22;19428;49.024;8.366;2023-07-22T06:52:03;18.40;99.90
33067;DHT22;19428;49.024;8.366;2023-07-22T06:54:29;18.10;99.90
33067;DHT22;19428;49.024;8.366;2023-07-22T06:56:55;18.20;99.90
33067;DHT22;19428;49.024;8.366;2023-07-22T06:59:20;18.20;99.90
33067;DHT22;19428;49.024;8.366;2023-07-22T07:01:46;18.40;99.90
33067;DHT22;19428;49.024;8.366;2023-07-22T07:04:11;18.80;99.90
33067;DHT22;19428;49.024;8.366;2023-07-22T07:06:37;19.00;95.20
33067;DHT22;19428;49.024;8.366;2023-07-22T07:09:03;19.20;93.40
33067;DHT22;19428;49.024;8.366;2023-07-22T07:11:31;19.50;87.80
33067;DHT22;19428;49.024;8.366;2023-07-22T07:13:57;19.20;85.30
33067;DHT22;19428;49.024;8.366;2023-07-22T07:18:50;19.60;84.10
33067;DHT22;19428;49.024;8.366;2023-07-22T07:21:17;19.70;76.50
33067;DHT22;19428;49.024;8.366;2023-07-22T07:23:43;20.20;65.90
33067;DHT22;19428;49.024;8.366;2023-07-22T07:26:09;19.60;72.20
33067;DHT22;19428;49.024;8.366;2023-07-22T07:28:34;19.40;75.50
33067;DHT22;19428;49.024;8.366;2023-07-22T07:31:00;19.40;79.40
33067;DHT22;19428;49.024;8.366;2023-07-22T07:33:25;19.40;77.90
33067;DHT22;19428;49.024;8.366;2023-07-22T07:35:51;19.20;75.70
33067;DHT22;19428;49.024;8.366;2023-07-22T07:38:16;19.40;78.80
33067;DHT22;19428;49.024;8.366;2023-07-22T07:40:42;19.60;75.80
33067;DHT22;19428;49.024;8.366;2023-07-22T07:43:08;19.60;78.10
33067;DHT22;19428;49.024;8.366;2023-07-22T07:45:37;19.40;72.90
33067;DHT22;19428;49.024;8.366;2023-07-22T07:48:05;19.30;81.20
33067;DHT22;19428;49.024;8.366;2023-07-22T07:50:32;19.20;81.50
33067;DHT22;19428;49.024;8.366;2023-07-22T07:52:57;19.20;80.70
33067;DHT22;19428;49.024;8.366;2023-07-22T07:55:24;19.40;83.10
33067;DHT22;19428;49.024;8.366;2023-07-22T07:57:50;19.50;79.00
33067;DHT22;19428;49.024;8.366;2023-07-22T08:00:16;19.50;79.10
33067;DHT22;19428;49.024;8.366;2023-07-22T08:02:42;19.80;75.60
33067;DHT22;19428;49.024;8.366;2023-07-22T08:05:07;19.70;71.30
33067;DHT22;19428;49.024;8.366;2023-07-22T08:07:33;19.80;72.60
33067;DHT22;19428;49.024;8.366;2023-07-22T08:09:59;20.10;66.10
33067;DHT22;19428;49.024;8.366;2023-07-22T08:12:24;19.90;64.30
33067;DHT22;19428;49.024;8.366;2023-07-22T08:14:55;20.00;71.40
33067;DHT22;19428;49.024;8.366;2023-07-22T08:17:20;20.10;65.10
33067;DHT22;19428;49.024;8.366;2023-07-22T08:19:46;20.30;60.80
33067;DHT22;19428;49.024;8.366;2023-07-22T08:22:12;20.50;55.00
33067;DHT22;19428;49.024;8.366;2023-07-22T08:24:38;20.30;51.80
33067;DHT22;19428;49.024;8.366;2023-07-22T08:27:04;20.50;50.80
33067;DHT22;19428;49.024;8.366;2023-07-22T08:29:29;20.60;52.40
33067;DHT22;19428;49.024;8.366;2023-07-22T08:31:55;20.30;45.30
33067;DHT22;19428;49.024;8.366;2023-07-22T08:34:21;20.40;44.60
33067;DHT22;19428;49.024;8.366;2023-07-22T08:36:47;20.40;45.80
33067;DHT22;19428;49.024;8.366;2023-07-22T08:39:12;20.40;45.50
33067;DHT22;19428;49.024;8.366;2023-07-22T08:41:38;20.60;47.80
33067;DHT22;19428;49.024;8.366;2023-07-22T08:44:04;20.70;48.40
33067;DHT22;19428;49.024;8.366;2023-07-22T08:46:33;20.90;45.40
33067;DHT22;19428;49.024;8.366;2023-07-22T08:49:00;21.00;45.50
33067;DHT22;19428;49.024;8.366;2023-07-22T08:51:26;21.20;44.10
33067;DHT22;19428;49.024;8.366;2023-07-22T08:53:56;21.30;41.40
33067;DHT22;19428;49.024;8.366;2023-07-22T08:56:25;21.50;40.20
33067;DHT22;19428;49.024;8.366;2023-07-22T08:58:52;21.80;36.70
33067;DHT22;19428;49.024;8.366;2023-07-22T09:01:17;21.80;35.50
33067;DHT22;19428;49.024;8.366;2023-07-22T09:03:43;21.90;37.30
33067;DHT22;19428;49.024;8.366;2023-07-22T09:06:10;22.10;34.40
33067;DHT22;19428;49.024;8.366;2023-07-22T09:08:35;22.10;29.40
33067;DHT22;19428;49.024;8.366;2023-07-22T09:11:01;21.90;30.20
33067;DHT22;19428;49.024;8.366;2023-07-22T09:13:28;21.80;31.20
33067;DHT22;19428;49.024;8.366;2023-07-22T09:15:57;21.80;31.10
33067;DHT22;19428;49.024;8.366;2023-07-22T09:18:23;22.00;29.30
33067;DHT22;19428;49.024;8.366;2023-07-22T09:20:49;22.20;24.90
33067;DHT22;19428;49.024;8.366;2023-07-22T09:23:15;22.60;23.00
33067;DHT22;19428;49.024;8.366;2023-07-22T09:25:42;22.40;19.30
33067;DHT22;19428;49.024;8.366;2023-07-22T09:28:08;22.20;21.40
33067;DHT22;19428;49.024;8.366;2023-07-22T09:30:38;22.10;23.60
33067;DHT22;19428;49.024;8.366;2023-07-22T09:33:06;22.20;24.70
33067;DHT22;19428;49.024;8.366;2023-07-22T09:35:44;22.00;24.90
33067;DHT22;19428;49.024;8.366;2023-07-22T09:38:10;22.10;22.70
33067;DHT22;19428;49.024;8.366;2023-07-22T09:40:35;22.00;21.30
33067;DHT22;19428;49.024;8.366;2023-07-22T09:43:02;22.20;23.50
33067;DHT22;19428;49.024;8.366;2023-07-22T09:45:30;22.40;21.70
33067;DHT22;19428;49.024;8.366;2023-07-22T09:47:56;22.50;21.30
33067;DHT22;19428;49.024;8.366;2023-07-22T09:50:25;22.50;17.90
33067;DHT22;19428;49.024;8.366;2023-07-22T09:52:55;22.70;18.50
33067;DHT22;19428;49.024;8.366;2023-07-22T09:55:27;22.50;16.70
33067;DHT22;19428;49.024;8.366;2023-07-22T09:58:01;22.60;18.10
33067;DHT22;19428;49.024;8.366;2023-07-22T10:00:34;22.70;17.60
33067;DHT22;19428;49.024;8.366;2023-07-22T10:03:02;22.80;18.60
33067;DHT22;19428;49.024;8.366;2023-07-22T10:05:34;23.10;18.50
33067;DHT22;19428;49.024;8.366;2023-07-22T10:08:00;23.10;19.30
33067;DHT22;19428;49.024;8.366;2023-07-22T10:10:33;23.20;18.10
33067;DHT22;19428;49.024;8.366;2023-07-22T10:13:00;23.60;18.70
33067;DHT22;19428;49.024;8.366;2023-07-22T10:15:29;23.40;15.70
33067;DHT22;19428;49.024;8.366;2023-07-22T10:17:55;23.50;14.60
33067;DHT22;19428;49.024;8.366;2023-07-22T10:20:22;23.40;15.50
33067;DHT22;19428;49.024;8.366;2023-07-22T10:22:49;23.60;14.60
33067;DHT22;19428;49.024;8.366;2023-07-22T10:25:16;23.80;11.90
33067;DHT22;19428;49.024;8.366;2023-07-22T10:27:42;23.90;10.10
33067;DHT22;19428;49.024;8.366;2023-07-22T10:30:14;23.90;6.90
33067;DHT22;19428;49.024;8.366;2023-07-22T10:32:42;23.70;5.50
33067;DHT22;19428;49.024;8.366;2023-07-22T10:35:09;23.80;7.10
33067;DHT22;19428;49.024;8.366;2023-07-22T10:37:40;23.90;5.00
33067;DHT22;19428;49.024;8.366;2023-07-22T10:40:19;23.80;6.80
33067;DHT22;19428;49.024;8.366;2023-07-22T10:42:58;23.90;5.90
33067;DHT22;19428;49.024;8.366;2023-07-22T10:48:05;23.90;4.90
33067;DHT22;19428;49.024;8.366;2023-07-22T10:50:42;23.80;5.50
33067;DHT22;19428;49.024;8.366;2023-07-22T10:56:06;24.50;2.20
33067;DHT22;19428;49.024;8.366;2023-07-22T10:58:33;24.40;1.10
33067;DHT22;19428;49.024;8.366;2023-07-22T11:04:10;24.30;3.20
33067;DHT22;19428;49.024;8.366;2023-07-22T11:11:54;24.50;1.00
33067;DHT22;19428;49.024;8.366;2023-07-22T11:14:22;24.20;1.00
33067;DHT22;19428;49.024;8.366;2023-07-22T11:16:48;24.20;1.00
33067;DHT22;19428;49.024;8.366;2023-07-22T11:19:15;24.20;1.00
33067;DHT22;19428;49.024;8.366;2023-07-22T11:21:44;24.20;1.00
33067;DHT22;19428;49.024;8.366;2023-07-22T11:24:10;24.50;1.00
33067;DHT22;19428;49.024;8.366;2023-07-22T11:26:37;24.80;1.00
33067;DHT22;19428;49.024;8.366;2023-07-22T11:29:04;24.80;1.00
33067;DHT22;19428;49.024;8.366;2023-07-22T11:31:41;25.50;1.00
33067;DHT22;19428;49.024;8.366;2023-07-22T11:34:08;25.10;1.00
33067;DHT22;19428;49.024;8.366;2023-07-22T11:36:34;25.10;1.00
33067;DHT22;19428;49.024;8.366;2023-07-22T11:39:12;24.90;1.00
33067;DHT22;19428;49.024;8.366;2023-07-22T11:41:39;25.00;1.00
33067;DHT22;19428;49.024;8.366;2023-07-22T11:44:07;25.00;1.00
33067;DHT22;19428;49.024;8.366;2023-07-22T11:46:47;24.40;1.00
33067;DHT22;19428;49.024;8.366;2023-07-22T11:49:28;24.50;1.00
33067;DHT22;19428;49.024;8.366;2023-07-22T11:51:59;24.30;1.00
33067;DHT22;19428;49.024;8.366;2023-07-22T11:54:26;24.40;1.00
33067;DHT22;19428;49.024;8.366;2023-07-22T11:56:52;24.90;1.00
33067;DHT22;19428;49.024;8.366;2023-07-22T11:59:36;25.30;1.00
33067;DHT22;19428;49.024;8.366;2023-07-22T12:02:02;25.10;1.00
33067;DHT22;19428;49.024;8.366;2023-07-22T12:04:30;25.10;1.00
33067;DHT22;19428;49.024;8.366;2023-07-22T12:06:56;25.30;1.00
33067;DHT22;19428;49.024;8.366;2023-07-22T12:09:23;25.10;1.00
33067;DHT22;19428;49.024;8.366;2023-07-22T12:11:55;25.10;1.00
33067;DHT22;19428;49.024;8.366;2023-07-22T12:14:21;26.40;1.00
33067;DHT22;19428;49.024;8.366;2023-07-22T12:16:47;26.90;1.00
33067;DHT22;19428;49.024;8.366;2023-07-22T12:19:12;26.70;1.00
33067;DHT22;19428;49.024;8.366;2023-07-22T12:21:38;27.10;1.00
33067;DHT22;19428;49.024;8.366;2023-07-22T12:24:04;26.50;1.00
33067;DHT22;19428;49.024;8.366;2023-07-22T12:26:29;25.50;1.00
33067;DHT22;19428;49.024;8.366;2023-07-22T12:28:55;26.40;1.00
33067;DHT22;19428;49.024;8.366;2023-07-22T12:31:21;26.90;1.00
33067;DHT22;19428;49.024;8.366;2023-07-22T12:33:46;26.80;1.00
33067;DHT22;19428;49.024;8.366;2023-07-22T12:36:12;27.10;1.00
33067;DHT22;19428;49.024;8.366;2023-07-22T12:38:38;26.80;1.00
33067;DHT22;19428;49.024;8.366;2023-07-22T12:41:03;27.60;1.00
33067;DHT22;19428;49.024;8.366;2023-07-22T12:43:29;27.30;1.00
33067;DHT22;19428;49.024;8.366;2023-07-22T12:45:55;27.70;1.00
33067;DHT22;19428;49.024;8.366;2023-07-22T12:48:21;27.50;1.00
33067;DHT22;19428;49.024;8.366;2023-07-22T12:50:47;26.50;1.00
33067;DHT22;19428;49.024;8.366;2023-07-22T12:53:13;26.60;1.00
33067;DHT22;19428;49.024;8.366;2023-07-22T12:55:39;26.70;1.00
33067;DHT22;19428;49.024;8.366;2023-07-22T12:58:05;26.50;1.00
33067;DHT22;19428;49.024;8.366;2023-07-22T13:00:30;26.60;1.00
33067;DHT22;19428;49.024;8.366;2023-07-22T13:02:56;26.00;1.00
33067;DHT22;19428;49.024;8.366;2023-07-22T13:05:22;26.50;1.00
33067;DHT22;19428;49.024;8.366;2023-07-22T13:07:48;26.90;1.00
33067;DHT22;19428;49.024;8.366;2023-07-22T13:10:13;27.40;1.00
33067;DHT22;19428;49.024;8.366;2023-07-22T13:12:42;27.70;1.00
33067;DHT22;19428;49.024;8.366;2023-07-22T13:15:08;27.60;1.00
33067;DHT22;19428;49.024;8.366;2023-07-22T13:17:33;27.20;1.00
33067;DHT22;19428;49.024;8.366;2023-07-22T13:19:59;27.40;1.00
33067;DHT22;19428;49.024;8.366;2023-07-22T13:22:24;28.00;1.00
33067;DHT22;19428;49.024;8.366;2023-07-22T13:24:50;27.60;1.00
33067;DHT22;19428;49.024;8.366;2023-07-22T13:27:15;27.70;1.00
33067;DHT22;19428;49.024;8.366;2023-07-22T13:29:41;28.20;1.00
33067;DHT22;19428;49.024;8.366;2023-07-22T13:32:07;27.60;1.00
33067;DHT22;19428;49.024;8.366;2023-07-22T13:34:32;26.50;1.00
33067;DHT22;19428;49.024;8.366;2023-07-22T13:36:58;26.20;1.00
33067;DHT22;19428;49.024;8.366;2023-07-22T13:39:24;26.10;1.00
33067;DHT22;19428;49.024;8.366;2023-07-22T13:41:49;26.60;1.00
33067;DHT22;19428;49.024;8.366;2023-07-22T13:44:16;27.50;1.00
33067;DHT22;19428;49.024;8.366;2023-07-22T13:46:42;26.90;1.00
33067;DHT22;19428;49.024;8.366;2023-07-22T13:49:07;26.50;1.00
33067;DHT22;19428;49.024;8.366;2023-07-22T13:51:33;26.90;1.00
33067;DHT22;19428;49.024;8.366;2023-07-22T13:53:58;27.40;1.00
33067;DHT22;19428;49.024;8.366;2023-07-22T13:56:24;27.40;1.00
33067;DHT22;19428;49.024;8.366;2023-07-22T13:58:50;27.30;1.00
33067;DHT22;19428;49.024;8.366;2023-07-22T14:01:16;27.00;1.00
33067;DHT22;19428;49.024;8.366;2023-07-22T14:03:41;26.90;1.00
33067;DHT22;19428;49.024;8.366;2023-07-22T14:06:07;26.50;1.00
33067;DHT22;19428;49.024;8.366;2023-07-22T14:08:33;26.30;1.00
33067;DHT22;19428;49.024;8.366;2023-07-22T14:10:59;26.50;1.00
33067;DHT22;19428;49.024;8.366;2023-07-22T14:13:25;27.00;1.00
33067;DHT22;19428;49.024;8.366;2023-07-22T14:15:50;27.10;1.00
33067;DHT22;19428;49.024;8.366;2023-07-22T14:18:17;27.20;1.00
33067;DHT22;19428;49.024;8.366;2023-07-22T14:20:44;27.30;1.00
33067;DHT22;19428;49.024;8.366;2023-07-22T14:23:10;27.20;1.00
33067;DHT22;19428;49.024;8.366;2023-07-22T14:25:36;27.20;1.00
33067;DHT22;19428;49.024;8.366;2023-07-22T14:28:02;26.90;1.00
33067;DHT22;19428;49.024;8.366;2023-07-22T14:30:27;26.80;1.00
33067;DHT22;19428;49.024;8.366;2023-07-22T14:32:53;27.40;1.00
33067;DHT22;19428;49.024;8.366;2023-07-22T14:35:18;27.50;1.00
33067;DHT22;19428;49.024;8.366;2023-07-22T14:37:44;27.60;1.00
33067;DHT22;19428;49.024;8.366;2023-07-22T14:40:11;27.90;1.00
33067;DHT22;19428;49.024;8.366;2023-07-22T14:42:40;27.10;1.00
33067;DHT22;19428;49.024;8.366;2023-07-22T14:45:06;27.10;1.00
33067;DHT22;19428;49.024;8.366;2023-07-22T14:47:32;27.00;1.00
33067;DHT22;19428;49.024;8.366;2023-07-22T14:49:58;27.20;1.00
33067;DHT22;19428;49.024;8.366;2023-07-22T14:52:23;27.40;1.00
33067;DHT22;19428;49.024;8.366;2023-07-22T14:54:49;27.30;1.00
33067;DHT22;19428;49.024;8.366;2023-07-22T14:57:18;27.50;1.00
33067;DHT22;19428;49.024;8.366;2023-07-22T14:59:43;27.40;1.00
33067;DHT22;19428;49.024;8.366;2023-07-22T15:02:09;27.50;1.00
33067;DHT22;19428;49.024;8.366;2023-07-22T15:04:35;27.10;1.00
33067;DHT22;19428;49.024;8.366;2023-07-22T15:07:01;27.60;1.00
33067;DHT22;19428;49.024;8.366;2023-07-22T15:09:27;27.20;1.00
33067;DHT22;19428;49.024;8.366;2023-07-22T15:11:53;27.60;1.00
33067;DHT22;19428;49.024;8.366;2023-07-22T15:14:18;27.50;1.00
33067;DHT22;19428;49.024;8.366;2023-07-22T15:16:44;27.50;1.00
33067;DHT22;19428;49.024;8.366;2023-07-22T15:19:11;27.40;1.00
33067;DHT22;19428;49.024;8.366;2023-07-22T15:21:36;27.70;1.00
33067;DHT22;19428;49.024;8.366;2023-07-22T15:24:02;27.60;1.00
33067;DHT22;19428;49.024;8.366;2023-07-22T15:26:28;27.60;1.00
33067;DHT22;19428;49.024;8.366;2023-07-22T15:28:53;27.30;1.00
33067;DHT22;19428;49.024;8.366;2023-07-22T15:31:19;27.80;1.00
33067;DHT22;19428;49.024;8.366;2023-07-22T15:36:28;27.20;1.00
33067;DHT22;19428;49.024;8.366;2023-07-22T15:38:53;27.40;1.00
33067;DHT22;19428;49.024;8.366;2023-07-22T15:41:19;27.20;1.00
33067;DHT22;19428;49.024;8.366;2023-07-22T15:43:45;27.60;1.00
33067;DHT22;19428;49.024;8.366;2023-07-22T15:46:10;27.60;1.00
33067;DHT22;19428;49.024;8.366;2023-07-22T15:48:36;27.30;1.00
33067;DHT22;19428;49.024;8.366;2023-07-22T15:51:01;27.80;1.00